Terminal Aerodrome Forecast
Issued by NWS

Home | Current Version | Previous Version | Text Only | Print | Product List | Glossary On
Versions: 1 2 3 4 5 6 7 8 9 10 11 12 13 14 15 16 17 18 19 20 21 22 23
000
FTUS44 KLZK 071100
TAFLIT
TAF
KLIT 071132Z 0712/0812 20008KT P6SM SCT020 OVC250
     FM071500 22008G15KT P6SM VCSH SCT030 BKN080 OVC250
     FM071800 23009G18KT P6SM VCTS SCT030CB BKN080 OVC250=

USA.gov is the U.S. government's official web portal to all federal, state and local government web resources and services.